Portada
METAR-TAF:

METAR-TAF

Aeroports :

Orsk, Rússia

latitud: 51-04-18N, longitud: 058-35-48E, altitud: 277 m

Observació

L'informe es va fer fa 57 minuts, a les 04:00 UTC
Vent 6 kt del Nord-Est
Temperatura -7°C
Humitat 86%
Pressió 1029 hPa
Visibilitat: 9000 m

METAR: UWOR 230400Z 04003MPS 9000 NSC M07/M09 Q1029 R25/CLRD60 NOSIG RMK QFE748/0998

Hora: 09:57 (04:57 UTC)

Pronòstic

L'informe es va fer fa 3 hores i 1 minuts, a les 01:56 UTC
Pronòstic vàlid del 23 a les 03 UTC al 23 a les 12 UTC
Vent 6 kt del Oest amb ràfegues de 16 kt
Visibilitat 10 km o més
Cel ennuvolat a una alçada de 1600 ft
Temporalment
l' 23 a les 03 UTC al 23 a les 12 UTC
Vent 2 kt amb direcció variable
Visibilitat: 0500 m
boira gebradora

TAF: UWOR 230156Z 2303/2312 27003G08MPS 9999 BKN016 TXM03/2310Z TNM06/2303Z TEMPO 2303/2312 VRB01MPS 0500 FZFG

Observacions i pronòstics meteorològics de més de 4000 aeroports (METAR i TAF).

Les estacions disponibles són els punts grocs i vermells al mapa.

Posi el ratolí al punt desitjat per veure el nom de l'estació.

Feu clic per veure les observacions i els pronòstics meteorològics.

Per canviar el mapa: feu clic els botons verds amb una creu de color negre per apropar; al botó verd amb un guió per allunyar la imatge; o en les fletxes verdes per a mapes adjacents.


METAR-TAF: